Time;durP1;ratioP1;P1;durP2;ratioP2;P2;SDS_P1;SDS_P2;PMS_P1;PMS_P2;Temp;Humidity;BMP_temperature;BMP_pressure;BME280_temperature;BME280_humidity;BME280_pressure;Samples;Min_cycle;Max_cycle;Signal;HPM_P1;HPM_P2
2022/02/15 00:00:48;;;;;;;;;;;-2.20;99.90;;;;;;4174739;28;19925;-59
2022/02/15 00:02:49;;;;;;;;;;;-2.20;99.90;;;;;;4176934;28;20280;-55
2022/02/15 00:04:50;;;;;;;;;;;-2.20;99.90;;;;;;4175547;28;19959;-60
2022/02/15 00:06:51;;;;;;;;;;;-2.20;99.90;;;;;;4176123;28;19924;-58
2022/02/15 00:08:52;;;;;;;;;;;-2.20;99.90;;;;;;4175226;28;19948;-62
2022/02/15 00:10:53;;;;;;;;;;;-2.20;99.90;;;;;;4176738;28;19923;-58
2022/02/15 00:12:54;;;;;;;;;;;-2.20;99.90;;;;;;4183584;28;19955;-57
2022/02/15 00:14:55;;;;;;;;;;;-2.30;99.90;;;;;;4183366;28;19917;-61
2022/02/15 00:16:56;;;;;;;;;;;-2.40;99.90;;;;;;4180429;28;19923;-55
2022/02/15 00:18:57;;;;;;;;;;;-2.50;99.90;;;;;;4191864;28;19998;-54
2022/02/15 00:21:00;;;;;;;;;;;-2.60;99.90;;;;;;4187841;28;19913;-59
2022/02/15 00:23:01;;;;;;;;;;;-2.60;99.90;;;;;;4176290;28;19920;-65
2022/02/15 00:25:02;;;;;;;;;;;-2.80;99.90;;;;;;4190043;28;20373;-60
2022/02/15 00:27:03;;;;;;;;;;;-2.90;99.90;;;;;;4191819;28;20335;-65
2022/02/15 00:29:04;;;;;;;;;;;-2.90;99.90;;;;;;4181095;28;19913;-64
2022/02/15 00:31:05;;;;;;;;;;;-3.00;99.90;;;;;;4192702;28;19916;-66
2022/02/15 00:33:06;;;;;;;;;;;-3.00;99.90;;;;;;4208356;28;19912;-60
2022/02/15 00:35:07;;;;;;;;;;;-3.00;99.90;;;;;;4195346;28;19924;-58
2022/02/15 00:37:08;;;;;;;;;;;-3.00;99.90;;;;;;4191922;28;19961;-61
2022/02/15 00:39:10;;;;;;;;;;;-3.00;99.90;;;;;;4190348;28;19917;-58
2022/02/15 00:41:11;;;;;;;;;;;-3.00;99.90;;;;;;4186010;28;19921;-59
2022/02/15 00:43:12;;;;;;;;;;;-2.90;99.90;;;;;;4164545;28;20027;-59
2022/02/15 00:45:13;;;;;;;;;;;-3.00;99.90;;;;;;4175066;28;19956;-60
2022/02/15 00:47:16;;;;;;;;;;;-3.10;99.90;;;;;;4174454;28;19967;-66
2022/02/15 00:49:16;;;;;;;;;;;-3.10;99.90;;;;;;4174975;28;19917;-55
2022/02/15 00:51:18;;;;;;;;;;;-3.10;99.90;;;;;;4178176;28;19912;-58
2022/02/15 00:53:20;;;;;;;;;;;-3.10;99.90;;;;;;4187718;28;19970;-55
2022/02/15 00:55:21;;;;;;;;;;;-3.10;99.90;;;;;;4190452;28;19997;-66
2022/02/15 00:57:22;;;;;;;;;;;-3.20;99.90;;;;;;4179177;28;20331;-60
2022/02/15 00:59:23;;;;;;;;;;;-3.20;99.90;;;;;;4175364;28;19944;-54
2022/02/15 01:01:24;;;;;;;;;;;-3.20;99.90;;;;;;4175886;28;20373;-59
2022/02/15 01:03:25;;;;;;;;;;;-3.10;99.90;;;;;;4179067;28;19931;-56
2022/02/15 01:05:26;;;;;;;;;;;-3.10;99.90;;;;;;4174292;28;19916;-58
2022/02/15 01:07:26;;;;;;;;;;;-3.10;99.90;;;;;;4175555;28;20331;-58
2022/02/15 01:09:27;;;;;;;;;;;-3.10;99.90;;;;;;4185936;28;19913;-56
2022/02/15 01:11:28;;;;;;;;;;;-3.20;99.90;;;;;;4175294;28;19974;-60
2022/02/15 01:13:29;;;;;;;;;;;-3.20;99.90;;;;;;4175572;28;20450;-59
2022/02/15 01:15:30;;;;;;;;;;;-3.10;99.90;;;;;;4175919;28;19959;-56
2022/02/15 01:17:31;;;;;;;;;;;-3.10;99.90;;;;;;4187545;28;19909;-54
2022/02/15 01:19:32;;;;;;;;;;;-3.10;99.90;;;;;;4191036;28;19924;-64
2022/02/15 01:21:33;;;;;;;;;;;-3.10;99.90;;;;;;4191152;28;19935;-59
2022/02/15 01:23:34;;;;;;;;;;;-3.20;99.90;;;;;;4191064;28;20323;-60
2022/02/15 01:25:35;;;;;;;;;;;-3.20;99.90;;;;;;4191596;28;20352;-54
2022/02/15 01:27:36;;;;;;;;;;;-3.30;99.90;;;;;;4191444;28;19958;-57
2022/02/15 01:29:37;;;;;;;;;;;-3.20;99.90;;;;;;4188376;28;19962;-63
2022/02/15 01:31:38;;;;;;;;;;;-3.10;99.90;;;;;;4188375;28;19969;-55
2022/02/15 01:33:39;;;;;;;;;;;-3.10;99.90;;;;;;4185457;28;20377;-57
2022/02/15 01:35:40;;;;;;;;;;;-3.10;99.90;;;;;;4173744;28;19917;-58
2022/02/15 01:37:41;;;;;;;;;;;-3.20;99.90;;;;;;4181907;28;19920;-70
2022/02/15 01:39:42;;;;;;;;;;;-3.30;99.90;;;;;;4174004;28;19912;-65
2022/02/15 01:41:43;;;;;;;;;;;-3.50;99.90;;;;;;4173642;28;19939;-61
2022/02/15 01:43:46;;;;;;;;;;;-3.60;99.90;;;;;;4183395;28;20282;-58
2022/02/15 01:45:47;;;;;;;;;;;-3.70;99.90;;;;;;4187283;28;19974;-57
2022/02/15 01:47:49;;;;;;;;;;;-3.70;99.90;;;;;;4173292;28;20368;-62
2022/02/15 01:49:50;;;;;;;;;;;-3.80;99.90;;;;;;4174336;28;19917;-66
2022/02/15 01:51:51;;;;;;;;;;;-3.80;99.90;;;;;;4189877;28;20380;-57
2022/02/15 01:53:52;;;;;;;;;;;-3.90;99.90;;;;;;4190368;28;19916;-55
2022/02/15 01:55:53;;;;;;;;;;;-3.90;99.90;;;;;;4190532;28;19916;-60
2022/02/15 01:57:54;;;;;;;;;;;-3.90;99.90;;;;;;4190477;28;20323;-64
2022/02/15 01:59:55;;;;;;;;;;;-3.90;99.90;;;;;;4188422;28;19929;-64
2022/02/15 02:01:56;;;;;;;;;;;-3.80;99.90;;;;;;4187460;28;19958;-55
2022/02/15 02:03:57;;;;;;;;;;;-3.70;99.90;;;;;;4190538;28;20618;-59
2022/02/15 02:05:58;;;;;;;;;;;-3.80;99.90;;;;;;4171499;28;19913;-53
2022/02/15 02:08:01;;;;;;;;;;;-3.70;99.90;;;;;;4186061;28;20277;-67
2022/02/15 02:10:02;;;;;;;;;;;-3.70;99.90;;;;;;4174804;28;20405;-56
2022/02/15 02:12:03;;;;;;;;;;;-3.80;99.90;;;;;;4174090;28;19916;-56
2022/02/15 02:14:04;;;;;;;;;;;-3.80;99.90;;;;;;4173409;28;20234;-53
2022/02/15 02:16:05;;;;;;;;;;;-3.80;99.90;;;;;;4173838;28;19924;-58
2022/02/15 02:18:06;;;;;;;;;;;-3.80;99.90;;;;;;4175303;28;19913;-60
2022/02/15 02:20:08;;;;;;;;;;;-3.80;99.90;;;;;;4190014;28;20671;-57
2022/02/15 02:22:09;;;;;;;;;;;-3.70;99.90;;;;;;4190054;28;19908;-65
2022/02/15 02:24:10;;;;;;;;;;;-3.70;99.90;;;;;;4189955;28;19979;-63
2022/02/15 02:26:11;;;;;;;;;;;-3.60;99.90;;;;;;4190302;28;19913;-63
2022/02/15 02:28:12;;;;;;;;;;;-3.60;99.90;;;;;;4186997;28;19966;-58
2022/02/15 02:30:13;;;;;;;;;;;-3.50;99.90;;;;;;4173360;28;20292;-63
2022/02/15 02:32:14;;;;;;;;;;;-3.40;99.90;;;;;;4172816;28;20455;-57
2022/02/15 02:34:15;;;;;;;;;;;-3.40;99.90;;;;;;4174700;28;19916;-60
2022/02/15 02:36:16;;;;;;;;;;;-3.30;99.90;;;;;;4172480;28;20349;-62
2022/02/15 02:38:17;;;;;;;;;;;-3.30;99.90;;;;;;4155347;28;20285;-58
2022/02/15 02:40:18;;;;;;;;;;;-3.30;99.90;;;;;;4173307;28;20738;-55
2022/02/15 02:42:26;;;;;;;;;;;-3.20;99.90;;;;;;4176324;28;19958;-57
2022/02/15 02:44:27;;;;;;;;;;;-3.20;99.90;;;;;;4189253;28;20441;-60
2022/02/15 02:46:29;;;;;;;;;;;-3.30;99.90;;;;;;4188429;28;19916;-57
2022/02/15 02:48:30;;;;;;;;;;;-3.40;99.90;;;;;;4176194;28;20451;-65
2022/02/15 02:50:31;;;;;;;;;;;-3.40;99.90;;;;;;4172631;28;19952;-65
2022/02/15 02:52:32;;;;;;;;;;;-3.50;99.90;;;;;;4172784;28;20381;-59
2022/02/15 02:54:33;;;;;;;;;;;-3.40;99.90;;;;;;4174744;28;20465;-55
2022/02/15 02:56:34;;;;;;;;;;;-3.30;99.90;;;;;;4180866;28;19940;-58
2022/02/15 02:58:35;;;;;;;;;;;-3.30;99.90;;;;;;4173377;28;19958;-66
2022/02/15 03:00:36;;;;;;;;;;;-3.20;99.90;;;;;;4173156;28;20027;-67
2022/02/15 03:02:37;;;;;;;;;;;-3.20;99.90;;;;;;4172541;28;19913;-60
2022/02/15 03:04:38;;;;;;;;;;;-3.20;99.90;;;;;;4184175;28;19962;-56
2022/02/15 03:06:39;;;;;;;;;;;-3.20;99.90;;;;;;4188539;28;19916;-55
2022/02/15 03:08:40;;;;;;;;;;;-3.20;99.90;;;;;;4188974;28;19966;-58
2022/02/15 03:10:41;;;;;;;;;;;-3.20;99.90;;;;;;4186735;28;20355;-71
2022/02/15 03:12:42;;;;;;;;;;;-3.10;99.90;;;;;;4190066;28;19912;-61
2022/02/15 03:14:43;;;;;;;;;;;-3.00;99.90;;;;;;4187874;28;19917;-62
2022/02/15 03:16:44;;;;;;;;;;;-2.90;99.90;;;;;;4189669;28;20005;-56
2022/02/15 03:18:45;;;;;;;;;;;-3.00;99.90;;;;;;4187309;28;20252;-58
2022/02/15 03:20:46;;;;;;;;;;;-3.00;99.90;;;;;;4187102;28;19971;-64
2022/02/15 03:22:47;;;;;;;;;;;-3.00;99.90;;;;;;4178004;28;19967;-61
2022/02/15 03:24:47;;;;;;;;;;;-3.10;99.90;;;;;;4172441;28;19942;-58
2022/02/15 03:26:48;;;;;;;;;;;-3.10;99.90;;;;;;4172972;28;19927;-61
2022/02/15 03:28:49;;;;;;;;;;;-3.10;99.90;;;;;;4172953;28;20360;-64
2022/02/15 03:30:50;;;;;;;;;;;-3.20;99.90;;;;;;4172992;28;19915;-61
2022/02/15 03:32:51;;;;;;;;;;;-3.20;99.90;;;;;;4172049;28;19912;-66
2022/02/15 03:34:52;;;;;;;;;;;-3.20;99.90;;;;;;4174408;28;19913;-56
2022/02/15 03:36:53;;;;;;;;;;;-3.20;99.90;;;;;;4187200;28;20379;-60
2022/02/15 03:38:54;;;;;;;;;;;-3.20;99.90;;;;;;4175196;28;19916;-61
2022/02/15 03:43:14;;;;;;;;;;;-3.30;99.90;;;;;;4185287;28;20002;-57
2022/02/15 03:45:15;;;;;;;;;;;-3.40;99.90;;;;;;4172046;28;19921;-53
2022/02/15 03:47:16;;;;;;;;;;;-3.50;99.90;;;;;;4172906;28;20273;-55
2022/02/15 03:49:17;;;;;;;;;;;-3.50;99.90;;;;;;4172801;28;20790;-69
2022/02/15 03:51:18;;;;;;;;;;;-3.40;99.90;;;;;;4184502;28;20821;-66
2022/02/15 03:53:19;;;;;;;;;;;-3.40;99.90;;;;;;4188643;28;19969;-56
2022/02/15 03:55:20;;;;;;;;;;;-3.30;99.90;;;;;;4189296;28;19919;-58
2022/02/15 03:57:21;;;;;;;;;;;-3.30;99.90;;;;;;4188957;28;19912;-57
2022/02/15 03:59:22;;;;;;;;;;;-3.30;99.90;;;;;;4176043;28;19928;-60
2022/02/15 04:01:23;;;;;;;;;;;-3.20;99.90;;;;;;4177482;28;19916;-62
2022/02/15 04:03:24;;;;;;;;;;;-3.20;99.90;;;;;;4188543;28;19928;-60
2022/02/15 04:05:25;;;;;;;;;;;-3.30;99.90;;;;;;4189507;28;19921;-62
2022/02/15 04:07:26;;;;;;;;;;;-3.20;99.90;;;;;;4186699;28;20410;-58
2022/02/15 04:09:27;;;;;;;;;;;-3.10;99.90;;;;;;4183721;28;19921;-58
2022/02/15 04:11:28;;;;;;;;;;;-3.20;99.90;;;;;;4172803;28;19913;-59
2022/02/15 04:13:30;;;;;;;;;;;-3.20;99.90;;;;;;4173308;28;20463;-57
2022/02/15 04:15:31;;;;;;;;;;;-3.30;99.90;;;;;;4182071;28;19916;-56
2022/02/15 04:17:32;;;;;;;;;;;-3.20;99.90;;;;;;4188372;28;19962;-58
2022/02/15 04:19:33;;;;;;;;;;;-3.20;99.90;;;;;;4186854;28;20002;-61
2022/02/15 04:21:34;;;;;;;;;;;-3.20;99.90;;;;;;4174749;28;19921;-60
2022/02/15 04:23:35;;;;;;;;;;;-3.10;99.90;;;;;;4185918;28;20648;-57
2022/02/15 04:25:36;;;;;;;;;;;-3.00;99.90;;;;;;4188282;28;19908;-61
2022/02/15 04:27:37;;;;;;;;;;;-3.00;99.90;;;;;;4187929;28;19924;-57
2022/02/15 04:29:38;;;;;;;;;;;-3.00;99.90;;;;;;4174493;28;19917;-57
2022/02/15 04:31:39;;;;;;;;;;;-2.90;99.90;;;;;;4175640;28;20296;-55
2022/02/15 04:33:40;;;;;;;;;;;-3.00;99.90;;;;;;4175607;28;19917;-60
2022/02/15 04:35:41;;;;;;;;;;;-3.10;99.90;;;;;;4175054;28;19917;-56
2022/02/15 04:37:42;;;;;;;;;;;-3.00;99.90;;;;;;4174971;28;19921;-59
2022/02/15 04:39:43;;;;;;;;;;;-3.10;99.90;;;;;;4175645;28;20608;-56
2022/02/15 04:41:44;;;;;;;;;;;-3.10;99.90;;;;;;4191336;28;19927;-59
2022/02/15 04:43:44;;;;;;;;;;;-3.10;99.90;;;;;;4188860;28;20466;-54
2022/02/15 04:45:45;;;;;;;;;;;-3.00;99.90;;;;;;4191412;28;19951;-60
2022/02/15 04:47:46;;;;;;;;;;;-3.00;99.90;;;;;;4178393;28;19916;-59
2022/02/15 04:49:47;;;;;;;;;;;-3.00;99.90;;;;;;4174933;28;19912;-58
2022/02/15 04:51:48;;;;;;;;;;;-2.90;99.90;;;;;;4188176;28;19916;-59
2022/02/15 04:53:49;;;;;;;;;;;-2.90;99.90;;;;;;4191578;28;19917;-62
2022/02/15 04:55:50;;;;;;;;;;;-2.90;99.90;;;;;;4190978;28;19916;-57
2022/02/15 04:57:51;;;;;;;;;;;-3.00;99.90;;;;;;4191594;28;19912;-59
2022/02/15 04:59:53;;;;;;;;;;;-2.90;99.90;;;;;;4189539;28;19997;-61
2022/02/15 05:01:53;;;;;;;;;;;-2.90;99.90;;;;;;4190992;28;20410;-56
2022/02/15 05:03:54;;;;;;;;;;;-2.90;99.90;;;;;;4191111;28;19935;-56
2022/02/15 05:05:56;;;;;;;;;;;-2.90;99.90;;;;;;4189658;28;19916;-60
2022/02/15 05:07:57;;;;;;;;;;;-2.90;99.90;;;;;;4190661;28;19909;-58
2022/02/15 05:09:58;;;;;;;;;;;-2.80;99.90;;;;;;4191972;28;19916;-60
2022/02/15 05:11:59;;;;;;;;;;;-2.80;99.90;;;;;;4174316;28;19916;-60
2022/02/15 05:14:00;;;;;;;;;;;-2.80;99.90;;;;;;4190572;28;19916;-61
2022/02/15 05:16:01;;;;;;;;;;;-2.80;99.90;;;;;;4189979;28;19912;-58
2022/02/15 05:18:03;;;;;;;;;;;-2.80;99.90;;;;;;4191408;28;19985;-61
2022/02/15 05:20:04;;;;;;;;;;;-2.80;99.90;;;;;;4178189;28;20356;-57
2022/02/15 05:22:05;;;;;;;;;;;-2.70;99.90;;;;;;4190731;28;19920;-62
2022/02/15 05:24:06;;;;;;;;;;;-2.80;99.90;;;;;;4189677;28;20326;-60
2022/02/15 05:26:07;;;;;;;;;;;-2.80;99.90;;;;;;4182497;28;19916;-60
2022/02/15 05:28:09;;;;;;;;;;;-2.80;99.90;;;;;;4174523;28;19940;-56
2022/02/15 05:30:10;;;;;;;;;;;-2.80;99.90;;;;;;4186800;28;20390;-66
2022/02/15 05:32:12;;;;;;;;;;;-2.90;99.90;;;;;;4190527;28;19977;-53
2022/02/15 05:34:14;;;;;;;;;;;-3.00;99.90;;;;;;4189890;28;19912;-56
2022/02/15 05:36:15;;;;;;;;;;;-3.00;99.90;;;;;;4189295;28;19917;-58
2022/02/15 05:38:16;;;;;;;;;;;-3.00;99.90;;;;;;4189491;28;20005;-56
2022/02/15 05:40:17;;;;;;;;;;;-3.00;99.90;;;;;;4186957;28;19916;-58
2022/02/15 05:42:18;;;;;;;;;;;-2.90;99.90;;;;;;4189223;28;19930;-55
2022/02/15 05:44:19;;;;;;;;;;;-2.80;99.90;;;;;;4186142;28;20373;-55
2022/02/15 05:46:20;;;;;;;;;;;-2.70;99.90;;;;;;4185846;28;19931;-62
2022/02/15 05:48:21;;;;;;;;;;;-2.60;99.90;;;;;;4189834;28;19912;-57
2022/02/15 05:52:41;;;;;;;;;;;-2.50;99.90;;;;;;4186412;28;19962;-59
2022/02/15 05:54:42;;;;;;;;;;;-2.50;99.90;;;;;;4190003;28;19916;-67
2022/02/15 05:56:43;;;;;;;;;;;-2.50;99.90;;;;;;4190378;28;19934;-60
2022/02/15 05:58:44;;;;;;;;;;;-2.40;99.90;;;;;;4190142;28;19912;-59
2022/02/15 06:00:45;;;;;;;;;;;-2.40;99.90;;;;;;4189967;28;19920;-57
2022/02/15 06:02:47;;;;;;;;;;;-2.30;99.90;;;;;;4189944;28;19912;-62
2022/02/15 06:04:48;;;;;;;;;;;-2.20;99.90;;;;;;4189829;28;20005;-68
2022/02/15 06:06:49;;;;;;;;;;;-2.10;99.90;;;;;;4189980;28;20001;-57
2022/02/15 06:08:50;;;;;;;;;;;-1.90;99.90;;;;;;4189320;28;19912;-73
2022/02/15 06:10:51;;;;;;;;;;;-1.80;99.90;;;;;;4190120;28;19912;-62
2022/02/15 06:12:52;;;;;;;;;;;-1.50;99.90;;;;;;4189330;28;19920;-61
2022/02/15 06:14:53;;;;;;;;;;;-1.40;99.90;;;;;;4190093;28;19927;-55
2022/02/15 06:16:54;;;;;;;;;;;-1.30;99.90;;;;;;4188401;28;20323;-59
2022/02/15 06:18:55;;;;;;;;;;;-1.10;99.90;;;;;;4190453;28;19912;-62
2022/02/15 06:20:56;;;;;;;;;;;-1.00;99.90;;;;;;4188439;28;19957;-59
2022/02/15 06:22:57;;;;;;;;;;;-0.90;99.90;;;;;;4189569;28;19912;-58
2022/02/15 06:24:58;;;;;;;;;;;-0.90;99.90;;;;;;4189814;28;19921;-55
2022/02/15 06:27:01;;;;;;;;;;;-0.90;99.90;;;;;;4189439;28;19912;-69
2022/02/15 06:29:02;;;;;;;;;;;-0.90;99.90;;;;;;4190183;28;19925;-57
2022/02/15 06:31:03;;;;;;;;;;;-0.90;99.90;;;;;;4189815;28;19967;-57
2022/02/15 06:33:04;;;;;;;;;;;-0.90;99.90;;;;;;4189600;28;19912;-61
2022/02/15 06:35:05;;;;;;;;;;;-0.90;99.90;;;;;;4188968;28;20352;-51
2022/02/15 06:37:07;;;;;;;;;;;-0.90;99.90;;;;;;4189533;28;19966;-57
2022/02/15 06:39:09;;;;;;;;;;;-0.90;99.90;;;;;;4187290;28;20001;-56
2022/02/15 06:41:11;;;;;;;;;;;-0.90;99.90;;;;;;4187583;28;19912;-55
2022/02/15 06:43:12;;;;;;;;;;;-0.90;99.90;;;;;;4189119;28;20323;-60
2022/02/15 06:45:13;;;;;;;;;;;-0.90;99.90;;;;;;4189541;28;19920;-58
2022/02/15 06:47:14;;;;;;;;;;;-0.90;99.90;;;;;;4188892;28;20386;-58
2022/02/15 06:49:15;;;;;;;;;;;-1.00;99.90;;;;;;4189486;28;19920;-56
2022/02/15 06:51:16;;;;;;;;;;;-1.00;99.90;;;;;;4188669;28;19912;-61
2022/02/15 06:53:17;;;;;;;;;;;-0.90;99.90;;;;;;4189246;28;19916;-66
2022/02/15 06:55:18;;;;;;;;;;;-0.90;99.90;;;;;;4189129;28;19909;-57
2022/02/15 06:57:19;;;;;;;;;;;-0.90;99.90;;;;;;4189487;28;20405;-57
2022/02/15 06:59:20;;;;;;;;;;;-0.90;99.90;;;;;;4187453;28;19932;-59
2022/02/15 07:01:21;;;;;;;;;;;-0.80;99.90;;;;;;4189786;28;19955;-60
2022/02/15 07:03:22;;;;;;;;;;;-0.80;99.90;;;;;;4189067;28;19920;-58
2022/02/15 07:05:23;;;;;;;;;;;-0.70;99.90;;;;;;4189434;28;19990;-60
2022/02/15 07:07:24;;;;;;;;;;;-0.60;99.90;;;;;;4188591;28;19971;-56
2022/02/15 07:09:25;;;;;;;;;;;-0.50;99.90;;;;;;4188725;28;19987;-64
2022/02/15 07:11:26;;;;;;;;;;;-0.30;99.90;;;;;;4189476;28;19954;-59
2022/02/15 07:13:27;;;;;;;;;;;-0.20;99.90;;;;;;4188453;28;19912;-61
2022/02/15 07:15:28;;;;;;;;;;;-0.20;99.90;;;;;;4189539;28;19920;-60
2022/02/15 07:17:34;;;;;;;;;;;-0.10;99.90;;;;;;4188727;28;19916;-69
2022/02/15 07:19:35;;;;;;;;;;;-0.10;99.90;;;;;;4189114;28;19965;-63
2022/02/15 07:21:36;;;;;;;;;;;0.00;99.90;;;;;;4188614;28;19912;-59
2022/02/15 07:23:37;;;;;;;;;;;0.00;99.90;;;;;;4188453;28;19943;-60
2022/02/15 07:25:38;;;;;;;;;;;0.10;99.90;;;;;;4188464;28;19913;-59
2022/02/15 07:27:39;;;;;;;;;;;0.10;99.90;;;;;;4189139;28;19916;-64
2022/02/15 07:29:40;;;;;;;;;;;0.10;99.90;;;;;;4189283;28;20426;-61
2022/02/15 07:31:42;;;;;;;;;;;0.20;99.90;;;;;;4188398;28;19966;-56
2022/02/15 07:33:43;;;;;;;;;;;0.20;99.90;;;;;;4188580;28;19913;-56
2022/02/15 07:35:44;;;;;;;;;;;0.20;99.90;;;;;;4188344;28;19913;-62
2022/02/15 07:37:48;;;;;;;;;;;0.20;99.90;;;;;;4188991;28;20390;-59
2022/02/15 07:39:49;;;;;;;;;;;0.10;99.90;;;;;;4188540;28;19958;-59
2022/02/15 07:41:50;;;;;;;;;;;0.10;99.90;;;;;;4188935;28;19916;-60
2022/02/15 07:43:51;;;;;;;;;;;0.20;99.90;;;;;;4187934;28;19913;-67
2022/02/15 07:45:53;;;;;;;;;;;0.20;99.90;;;;;;4188963;28;19913;-64
2022/02/15 07:47:54;;;;;;;;;;;0.30;99.90;;;;;;4188315;28;20349;-58
2022/02/15 07:49:54;;;;;;;;;;;0.40;99.90;;;;;;4170598;28;20647;-60
2022/02/15 07:51:56;;;;;;;;;;;0.40;99.90;;;;;;4187065;28;19924;-65
2022/02/15 07:53:57;;;;;;;;;;;0.50;99.90;;;;;;4189299;28;19963;-62
2022/02/15 07:55:58;;;;;;;;;;;0.50;99.90;;;;;;4187822;28;19912;-59
2022/02/15 07:57:59;;;;;;;;;;;0.50;99.90;;;;;;4188477;28;20365;-62
2022/02/15 08:00:00;;;;;;;;;;;0.60;99.90;;;;;;4188315;28;19924;-56
2022/02/15 08:02:03;;;;;;;;;;;0.60;99.90;;;;;;4189632;28;20504;-63
2022/02/15 08:04:04;;;;;;;;;;;0.70;99.90;;;;;;4191759;28;19920;-62
2022/02/15 08:06:06;;;;;;;;;;;0.80;99.90;;;;;;4191917;28;19962;-60
2022/02/15 08:08:08;;;;;;;;;;;0.90;99.90;;;;;;4191443;28;20743;-59
2022/02/15 08:10:08;;;;;;;;;;;1.10;99.90;;;;;;4191402;28;20198;-56
2022/02/15 08:12:11;;;;;;;;;;;1.10;99.90;;;;;;4191447;28;19963;-55
2022/02/15 08:14:12;;;;;;;;;;;1.20;99.90;;;;;;4191581;28;19971;-62
2022/02/15 08:16:13;;;;;;;;;;;1.30;99.90;;;;;;4192448;28;19912;-57
2022/02/15 08:18:14;;;;;;;;;;;1.40;99.90;;;;;;4172906;28;20460;-59
2022/02/15 08:20:15;;;;;;;;;;;1.50;99.90;;;;;;4191494;28;20679;-56
2022/02/15 08:22:18;;;;;;;;;;;1.40;99.90;;;;;;4191583;28;19927;-61
2022/02/15 08:24:20;;;;;;;;;;;1.40;99.90;;;;;;4191925;28;19924;-61
2022/02/15 08:26:22;;;;;;;;;;;1.50;99.90;;;;;;4189301;28;20002;-67
2022/02/15 08:28:23;;;;;;;;;;;1.50;99.90;;;;;;4191441;28;19917;-57
2022/02/15 08:30:24;;;;;;;;;;;1.60;99.90;;;;;;4191388;28;20396;-54
2022/02/15 08:32:25;;;;;;;;;;;1.70;99.90;;;;;;4191474;28;19916;-62
2022/02/15 08:34:26;;;;;;;;;;;1.70;99.90;;;;;;4191065;28;19913;-58
2022/02/15 08:36:27;;;;;;;;;;;1.70;99.90;;;;;;4191472;28;19963;-55
2022/02/15 08:38:31;;;;;;;;;;;1.80;99.90;;;;;;4191482;28;19912;-55
2022/02/15 08:40:32;;;;;;;;;;;1.80;99.90;;;;;;4191859;28;20356;-58
2022/02/15 08:42:33;;;;;;;;;;;1.80;99.90;;;;;;4191619;28;19962;-58
2022/02/15 08:44:35;;;;;;;;;;;1.80;99.90;;;;;;4191342;28;19920;-58
2022/02/15 08:46:36;;;;;;;;;;;1.80;99.90;;;;;;4192054;28;19912;-56
2022/02/15 08:48:37;;;;;;;;;;;1.80;99.90;;;;;;4190946;28;19948;-58
2022/02/15 08:50:38;;;;;;;;;;;1.80;99.90;;;;;;4191443;28;19928;-60
2022/02/15 08:52:38;;;;;;;;;;;1.90;99.90;;;;;;4190942;28;19909;-60
2022/02/15 08:54:39;;;;;;;;;;;1.90;99.90;;;;;;4191627;28;19913;-57
2022/02/15 08:56:40;;;;;;;;;;;1.80;99.90;;;;;;4189979;28;19912;-60
2022/02/15 08:58:41;;;;;;;;;;;1.80;99.90;;;;;;4191278;28;20010;-63
2022/02/15 09:00:42;;;;;;;;;;;1.90;99.90;;;;;;4189547;28;19925;-62
2022/02/15 09:02:43;;;;;;;;;;;1.90;99.90;;;;;;4190621;28;19913;-63
2022/02/15 09:04:44;;;;;;;;;;;2.00;99.90;;;;;;4190619;28;19921;-61
2022/02/15 09:06:45;;;;;;;;;;;2.00;99.90;;;;;;4190386;28;20330;-66
2022/02/15 09:08:46;;;;;;;;;;;2.00;99.90;;;;;;4190955;28;19917;-54
2022/02/15 09:10:47;;;;;;;;;;;2.00;99.90;;;;;;4190402;28;19978;-58
2022/02/15 09:12:48;;;;;;;;;;;2.00;99.90;;;;;;4189574;28;20813;-58
2022/02/15 09:14:49;;;;;;;;;;;2.00;99.90;;;;;;4190124;28;19961;-58
2022/02/15 09:16:50;;;;;;;;;;;2.10;99.90;;;;;;4190708;28;19966;-62
2022/02/15 09:18:50;;;;;;;;;;;2.00;99.90;;;;;;4189910;28;20011;-59
2022/02/15 09:20:51;;;;;;;;;;;2.10;99.90;;;;;;4191175;28;19918;-57
2022/02/15 09:22:52;;;;;;;;;;;2.10;99.90;;;;;;4189720;28;19917;-63
2022/02/15 09:24:53;;;;;;;;;;;2.10;99.90;;;;;;4190896;28;19932;-55
2022/02/15 09:26:54;;;;;;;;;;;2.10;99.90;;;;;;4190476;28;20004;-55
2022/02/15 09:28:55;;;;;;;;;;;2.10;99.90;;;;;;4190763;28;19923;-65
2022/02/15 09:30:56;;;;;;;;;;;2.10;99.90;;;;;;4190369;28;19912;-56
2022/02/15 09:32:57;;;;;;;;;;;2.10;99.90;;;;;;4190313;28;19912;-58
2022/02/15 09:34:58;;;;;;;;;;;2.20;99.90;;;;;;4190508;28;19917;-56
2022/02/15 09:36:59;;;;;;;;;;;2.30;99.90;;;;;;4190673;28;19917;-59
2022/02/15 09:39:00;;;;;;;;;;;2.30;99.90;;;;;;4172203;28;19913;-61
2022/02/15 09:41:06;;;;;;;;;;;2.30;99.90;;;;;;4189968;28;19916;-58
2022/02/15 09:43:08;;;;;;;;;;;2.30;99.90;;;;;;4189559;28;19982;-60
2022/02/15 09:45:09;;;;;;;;;;;2.30;99.90;;;;;;4190102;28;19917;-57
2022/02/15 09:47:11;;;;;;;;;;;2.30;99.90;;;;;;4190522;28;20758;-64
2022/02/15 09:51:31;;;;;;;;;;;2.40;99.90;;;;;;4190665;28;19943;-56
2022/02/15 09:53:32;;;;;;;;;;;2.50;99.90;;;;;;4171558;28;19913;-57
2022/02/15 09:55:33;;;;;;;;;;;2.50;99.90;;;;;;4190203;28;19989;-61
2022/02/15 09:57:34;;;;;;;;;;;2.60;99.90;;;;;;4188989;28;19917;-57
2022/02/15 09:59:35;;;;;;;;;;;2.70;99.90;;;;;;4190038;28;19950;-68
2022/02/15 10:01:36;;;;;;;;;;;2.80;99.90;;;;;;4189047;28;19978;-58
2022/02/15 10:03:55;;;;;;;;;;;3.00;99.90;;;;;;4190038;28;19909;-59
2022/02/15 10:05:57;;;;;;;;;;;3.30;99.90;;;;;;4189524;28;19925;-62
2022/02/15 10:07:58;;;;;;;;;;;3.40;99.90;;;;;;4189313;28;19962;-57
2022/02/15 10:09:59;;;;;;;;;;;3.60;99.90;;;;;;4171298;28;19913;-58
2022/02/15 10:12:03;;;;;;;;;;;3.60;99.90;;;;;;4189951;28;19982;-58
2022/02/15 10:14:04;;;;;;;;;;;3.60;99.90;;;;;;4188857;28;19913;-61
2022/02/15 10:16:05;;;;;;;;;;;3.50;99.90;;;;;;4189428;28;20253;-61
2022/02/15 10:18:06;;;;;;;;;;;3.50;99.90;;;;;;4189760;28;19912;-57
2022/02/15 10:20:07;;;;;;;;;;;3.50;99.90;;;;;;4189777;28;20706;-55
2022/02/15 10:22:08;;;;;;;;;;;3.70;99.90;;;;;;4189607;28;20428;-56
2022/02/15 10:24:13;;;;;;;;;;;3.80;99.90;;;;;;4189418;28;20015;-60
2022/02/15 10:26:14;;;;;;;;;;;3.80;99.90;;;;;;4189855;28;19962;-65
2022/02/15 10:28:15;;;;;;;;;;;3.80;99.90;;;;;;4189618;28;19913;-58
2022/02/15 10:30:26;;;;;;;;;;;3.80;99.90;;;;;;4190194;28;19960;-62
2022/02/15 10:32:26;;;;;;;;;;;3.80;99.90;;;;;;4187657;28;19965;-63
2022/02/15 10:34:28;;;;;;;;;;;4.00;99.90;;;;;;4190450;28;20288;-64
2022/02/15 10:36:29;;;;;;;;;;;4.10;99.90;;;;;;4189391;28;19928;-60
2022/02/15 10:38:38;;;;;;;;;;;4.30;99.90;;;;;;4190224;28;20442;-61
2022/02/15 10:40:39;;;;;;;;;;;4.30;99.90;;;;;;4188827;28;20342;-57
2022/02/15 10:42:40;;;;;;;;;;;4.20;99.90;;;;;;4189714;28;19952;-64
2022/02/15 10:44:48;;;;;;;;;;;4.20;99.90;;;;;;4188561;28;19970;-59
2022/02/15 10:46:49;;;;;;;;;;;4.30;99.90;;;;;;4189784;28;19912;-58
2022/02/15 10:48:51;;;;;;;;;;;4.30;99.90;;;;;;4189102;28;19908;-70
2022/02/15 10:50:52;;;;;;;;;;;4.30;99.90;;;;;;4189141;28;19912;-57
2022/02/15 10:52:55;;;;;;;;;;;4.30;99.90;;;;;;4188891;28;20228;-64
2022/02/15 10:54:56;;;;;;;;;;;4.30;99.90;;;;;;4189043;28;19942;-55
2022/02/15 10:57:00;;;;;;;;;;;4.40;99.90;;;;;;4189202;28;19938;-60
2022/02/15 10:59:03;;;;;;;;;;;4.40;99.90;;;;;;4188477;28;19912;-59
2022/02/15 11:01:05;;;;;;;;;;;4.40;99.90;;;;;;4189125;28;19913;-60
2022/02/15 11:03:07;;;;;;;;;;;4.40;99.90;;;;;;4188943;28;19970;-63
2022/02/15 11:05:10;;;;;;;;;;;4.40;99.90;;;;;;4189286;28;19921;-71
2022/02/15 11:07:11;;;;;;;;;;;4.30;99.90;;;;;;4188606;28;20393;-65
2022/02/15 11:09:15;;;;;;;;;;;4.20;99.90;;;;;;4189185;28;19917;-60
2022/02/15 11:11:17;;;;;;;;;;;4.10;99.90;;;;;;4188339;28;19966;-62
2022/02/15 11:13:18;;;;;;;;;;;4.10;99.90;;;;;;4189165;28;20364;-68
2022/02/15 11:15:20;;;;;;;;;;;4.10;99.90;;;;;;4188369;28;20026;-61
2022/02/15 11:17:24;;;;;;;;;;;4.20;99.90;;;;;;4188977;28;19908;-59
2022/02/15 11:19:37;;;;;;;;;;;4.20;99.90;;;;;;4188554;28;19917;-60
2022/02/15 11:21:38;;;;;;;;;;;4.10;99.90;;;;;;4189066;28;19908;-61
2022/02/15 11:23:41;;;;;;;;;;;4.10;99.90;;;;;;4188362;28;20257;-64
2022/02/15 11:25:42;;;;;;;;;;;4.10;99.90;;;;;;4188901;28;19921;-67
2022/02/15 11:27:51;;;;;;;;;;;4.10;99.90;;;;;;4188737;28;20373;-63
2022/02/15 11:29:55;;;;;;;;;;;4.20;99.90;;;;;;4188685;28;19962;-66
2022/02/15 11:31:56;;;;;;;;;;;4.30;99.90;;;;;;4188734;28;20365;-58
2022/02/15 11:34:00;;;;;;;;;;;4.30;99.90;;;;;;4188762;28;19913;-59
2022/02/15 11:36:05;;;;;;;;;;;4.40;99.90;;;;;;4188289;28;19909;-67
2022/02/15 11:38:07;;;;;;;;;;;4.40;99.90;;;;;;4188780;28;19986;-60
2022/02/15 11:40:12;;;;;;;;;;;4.50;99.90;;;;;;4188130;28;20346;-61
2022/02/15 11:42:19;;;;;;;;;;;4.50;99.90;;;;;;4188437;28;20333;-61
2022/02/15 11:44:33;;;;;;;;;;;4.40;99.90;;;;;;4188414;28;19912;-67
2022/02/15 11:46:35;;;;;;;;;;;4.50;99.90;;;;;;4187727;28;19917;-62
2022/02/15 11:48:38;;;;;;;;;;;4.60;99.90;;;;;;4189029;28;20711;-62
2022/02/15 11:50:43;;;;;;;;;;;4.60;99.90;;;;;;4187398;28;19908;-55
2022/02/15 11:52:44;;;;;;;;;;;4.60;99.90;;;;;;4189055;28;19958;-58
2022/02/15 11:54:45;;;;;;;;;;;4.80;99.90;;;;;;4188167;28;19917;-58
2022/02/15 11:56:50;;;;;;;;;;;4.80;99.90;;;;;;4188515;28;20589;-61